Terminal Aerodrome Forecast
Issued by NWS

Current Version | Previous Version | Text Only | Print | Product List | Glossary On
Versions: 1 2 3 4 5 6 7 8 9 10 11 12 13 14 15 16 17
000
FTUS41 KBOX 232320
TAFHYA
TAF
KHYA 232320Z 2400/2424 21015G23KT P6SM OVC015 WS020/23045KT
     FM240400 21015G24KT 5SM BR VCSH OVC008 WS020/24045KT
     FM241300 22014G22KT 3SM -SHRA BR OVC008
     FM241800 22014KT 6SM BR VCSH BKN250
     FM242100 25007KT P6SM SCT250=

USA.gov is the U.S. government's official web portal to all federal, state and local government web resources and services.